createdAt,value
2018-07-13T00:01:12.513Z,9.40
2018-07-13T00:03:40.946Z,10.03
2018-07-13T00:06:09.425Z,10.80
2018-07-13T00:08:37.833Z,9.30
2018-07-13T00:11:06.354Z,11.23
2018-07-13T00:13:44.732Z,10.07
2018-07-13T00:16:13.174Z,9.20
2018-07-13T00:18:41.572Z,11.97
2018-07-13T00:21:10.110Z,11.67
2018-07-13T00:23:38.508Z,12.10
2018-07-13T00:26:06.934Z,11.20
2018-07-13T00:28:35.385Z,9.57
2018-07-13T00:31:03.791Z,13.37
2018-07-13T00:33:32.223Z,9.50
2018-07-13T00:36:00.649Z,10.53
2018-07-13T00:38:30.056Z,11.17
2018-07-13T00:40:58.514Z,10.07
2018-07-13T00:43:26.894Z,9.27
2018-07-13T00:45:55.293Z,9.33
2018-07-13T00:48:23.680Z,10.80
2018-07-13T00:50:52.097Z,9.10
2018-07-13T00:53:21.450Z,10.40
2018-07-13T00:55:49.865Z,9.60
2018-07-13T00:58:18.301Z,9.47
2018-07-13T01:00:46.732Z,14.90
2018-07-13T01:03:15.214Z,9.53
2018-07-13T01:05:43.662Z,12.93
2018-07-13T01:08:12.082Z,11.33
2018-07-13T01:10:41.185Z,8.87
2018-07-13T01:13:09.682Z,9.80
2018-07-13T01:15:38.183Z,9.77
2018-07-13T01:18:06.775Z,10.67
2018-07-13T01:20:35.205Z,9.00
2018-07-13T01:23:03.615Z,10.07
2018-07-13T01:25:32.153Z,11.60
2018-07-13T01:28:00.557Z,12.70
2018-07-13T01:30:28.997Z,13.80
2018-07-13T01:32:57.478Z,9.00
2018-07-13T01:35:26.211Z,10.13
2018-07-13T01:37:54.637Z,9.47
2018-07-13T01:40:23.073Z,12.90
2018-07-13T01:42:51.505Z,9.57
2018-07-13T01:45:20.182Z,11.63
2018-07-13T01:47:48.585Z,10.07
2018-07-13T01:50:17.628Z,10.83
2018-07-13T01:52:46.279Z,9.23
2018-07-13T01:55:14.834Z,12.87
2018-07-13T01:57:43.335Z,9.30
2018-07-13T02:00:11.821Z,11.80
2018-07-13T02:02:40.354Z,9.20
2018-07-13T02:05:08.789Z,11.03
2018-07-13T02:07:37.269Z,9.67
2018-07-13T02:10:05.801Z,10.53
2018-07-13T02:12:34.281Z,10.53
2018-07-13T02:15:02.706Z,10.57
2018-07-13T02:17:31.145Z,9.93
2018-07-13T02:19:59.605Z,13.43
2018-07-13T02:22:28.060Z,10.67
2018-07-13T02:24:56.461Z,9.40
2018-07-13T02:27:24.913Z,12.30
2018-07-13T02:29:53.437Z,11.03
2018-07-13T02:32:21.879Z,12.37
2018-07-13T02:34:50.322Z,13.93
2018-07-13T02:37:18.817Z,13.40
2018-07-13T02:39:47.288Z,15.27
2018-07-13T02:42:15.777Z,10.67
2018-07-13T02:44:44.286Z,10.97
2018-07-13T02:47:12.775Z,10.93
2018-07-13T02:49:41.194Z,12.70
2018-07-13T02:52:09.636Z,11.60
2018-07-13T02:54:38.033Z,12.27
2018-07-13T02:57:06.473Z,10.97
2018-07-13T02:59:34.893Z,11.13
2018-07-13T03:02:03.299Z,11.90
2018-07-13T03:04:31.767Z,11.40
2018-07-13T03:07:00.197Z,11.73
2018-07-13T03:09:28.598Z,14.80
2018-07-13T03:11:57.013Z,11.57
2018-07-13T03:14:25.452Z,15.13
2018-07-13T03:16:53.889Z,14.40
2018-07-13T03:19:22.311Z,20.27
2018-07-13T03:21:50.762Z,15.53
2018-07-13T03:24:19.198Z,13.20
2018-07-13T03:26:47.672Z,11.37
2018-07-13T03:29:16.145Z,10.83
2018-07-13T03:31:44.576Z,13.13
2018-07-13T03:34:13.007Z,14.50
2018-07-13T03:36:41.398Z,11.67
2018-07-13T03:39:09.840Z,13.73
2018-07-13T03:41:38.273Z,13.57
2018-07-13T03:44:06.754Z,13.77
2018-07-13T03:46:35.190Z,11.47
2018-07-13T03:49:03.655Z,13.37
2018-07-13T03:51:32.039Z,11.47
2018-07-13T03:54:00.803Z,12.07
2018-07-13T03:56:29.160Z,15.07
2018-07-13T03:58:57.610Z,15.77
2018-07-13T04:01:26.021Z,13.23
2018-07-13T04:03:54.460Z,12.00
2018-07-13T04:06:22.916Z,13.40
2018-07-13T04:08:52.030Z,10.40
2018-07-13T04:11:20.498Z,11.60
2018-07-13T04:13:48.909Z,12.40
2018-07-13T04:16:17.361Z,11.97
2018-07-13T04:18:45.794Z,13.43
2018-07-13T04:21:14.489Z,13.80
2018-07-13T04:23:42.997Z,11.83
2018-07-13T04:26:11.479Z,11.67
2018-07-13T04:28:40.294Z,14.43
2018-07-13T04:31:08.717Z,10.27
2018-07-13T04:33:37.156Z,14.90
2018-07-13T04:36:05.622Z,12.37
2018-07-13T04:38:34.136Z,13.73
2018-07-13T04:41:02.600Z,12.37
2018-07-13T04:43:31.045Z,10.67
2018-07-13T04:45:59.537Z,14.07
2018-07-13T04:48:28.089Z,11.70
2018-07-13T04:50:56.621Z,15.23
2018-07-13T04:53:25.217Z,9.60
2018-07-13T04:55:53.754Z,10.17
2018-07-13T04:58:22.263Z,10.43
2018-07-13T05:00:50.765Z,11.17
2018-07-13T05:03:19.881Z,16.67
2018-07-13T05:05:48.422Z,15.80
2018-07-13T05:08:17.029Z,11.80
2018-07-13T05:10:45.499Z,13.17
2018-07-13T05:13:14.459Z,12.40
2018-07-13T05:15:42.906Z,12.43
2018-07-13T05:18:11.394Z,12.40
2018-07-13T05:20:39.881Z,12.77
2018-07-13T05:23:08.365Z,11.80
2018-07-13T05:25:36.929Z,9.03
2018-07-13T05:28:06.113Z,11.70
2018-07-13T05:30:34.606Z,9.43
2018-07-13T05:33:03.146Z,10.27
2018-07-13T05:35:31.631Z,10.77
2018-07-13T05:38:00.213Z,13.97
2018-07-13T05:40:28.677Z,13.57
2018-07-13T05:42:57.165Z,11.90
2018-07-13T05:45:25.809Z,14.33
2018-07-13T05:47:54.309Z,17.13
2018-07-13T05:50:22.788Z,10.33
2018-07-13T05:52:51.453Z,9.17
2018-07-13T05:55:20.035Z,9.30
2018-07-13T05:57:49.393Z,10.33
2018-07-13T06:00:17.945Z,11.00
2018-07-13T06:02:46.488Z,10.07
2018-07-13T06:05:15.077Z,14.63
2018-07-13T06:07:43.621Z,15.87
2018-07-13T06:10:12.124Z,12.47
2018-07-13T06:12:40.660Z,15.20
2018-07-13T06:15:09.317Z,12.17
2018-07-13T06:17:37.686Z,12.60
2018-07-13T06:20:08.854Z,13.80
2018-07-13T06:22:37.357Z,13.53
2018-07-13T06:25:06.813Z,12.80
2018-07-13T06:27:35.278Z,14.67
2018-07-13T06:30:03.850Z,17.43
2018-07-13T06:32:32.341Z,13.87
2018-07-13T06:35:01.235Z,14.77
2018-07-13T06:37:29.926Z,14.83
2018-07-13T06:39:58.470Z,16.27
2018-07-13T06:42:26.931Z,21.70
2018-07-13T06:44:55.534Z,16.10
2018-07-13T06:47:23.982Z,15.67
2018-07-13T06:49:52.727Z,13.73
2018-07-13T06:52:21.261Z,15.50
2018-07-13T06:54:49.700Z,16.30
2018-07-13T06:59:26.976Z,17.30
2018-07-13T07:01:55.445Z,17.13
2018-07-13T07:04:34.869Z,18.27
2018-07-13T07:07:07.702Z,18.57
2018-07-13T07:09:36.627Z,19.80
2018-07-13T07:13:18.371Z,18.33
2018-07-13T07:15:46.859Z,16.27
2018-07-13T07:18:15.308Z,22.50
2018-07-13T07:20:43.785Z,20.87
2018-07-13T07:23:12.294Z,22.10
2018-07-13T07:25:40.771Z,18.67
2018-07-13T07:28:09.245Z,23.33
2018-07-13T07:30:37.713Z,18.70
2018-07-13T07:33:06.248Z,19.17
2018-07-13T07:35:34.742Z,17.07
2018-07-13T07:38:03.170Z,20.27
2018-07-13T07:40:31.706Z,19.57
2018-07-13T07:43:00.245Z,22.67
2018-07-13T07:45:28.761Z,30.77
2018-07-13T07:48:02.570Z,17.27
2018-07-13T07:50:31.102Z,16.30
2018-07-13T07:52:59.670Z,17.47
2018-07-13T07:55:28.300Z,21.70
2018-07-13T07:57:56.803Z,18.60
2018-07-13T08:00:25.196Z,16.57
2018-07-13T08:02:54.587Z,19.70
2018-07-13T08:05:23.056Z,16.67
2018-07-13T08:07:51.561Z,20.47
2018-07-13T08:10:20.022Z,15.77
2018-07-13T08:12:48.462Z,17.20
2018-07-13T08:15:16.853Z,17.37
2018-07-13T08:17:45.326Z,16.87
2018-07-13T08:20:19.439Z,16.80
2018-07-13T08:22:58.565Z,16.03
2018-07-13T08:25:27.582Z,20.23
2018-07-13T08:27:58.653Z,18.97
2018-07-13T08:30:34.482Z,14.90
2018-07-13T08:33:02.929Z,15.17
2018-07-13T08:35:31.362Z,13.07
2018-07-13T08:37:59.824Z,17.77
2018-07-13T08:40:28.318Z,16.30
2018-07-13T08:42:56.882Z,15.67
2018-07-13T08:45:25.408Z,19.63
2018-07-13T08:47:53.920Z,12.43
2018-07-13T08:50:22.412Z,13.87
2018-07-13T10:14:49.013Z,11.87
2018-07-13T10:17:17.507Z,14.60
2018-07-13T10:19:46.009Z,11.93
2018-07-13T10:22:17.826Z,11.70
2018-07-13T10:24:47.270Z,11.10
2018-07-13T10:27:16.409Z,12.30
2018-07-13T10:29:47.197Z,11.13
2018-07-13T10:32:15.738Z,10.67
2018-07-13T10:34:44.565Z,11.07
2018-07-13T10:37:13.082Z,8.03
2018-07-13T10:39:41.620Z,8.87
2018-07-13T10:42:10.103Z,9.13
2018-07-13T10:44:38.587Z,10.50
2018-07-13T10:47:07.144Z,12.00
2018-07-13T10:49:35.592Z,10.53
2018-07-13T10:52:04.106Z,10.30
2018-07-13T10:54:32.581Z,9.50
2018-07-13T10:57:01.134Z,10.35
2018-07-13T10:59:29.542Z,8.87
2018-07-13T11:01:57.991Z,11.53
2018-07-13T11:04:26.442Z,12.20
2018-07-13T11:06:54.909Z,13.43
2018-07-13T11:09:23.378Z,13.67
2018-07-13T11:11:52.030Z,8.20
2018-07-13T11:14:20.474Z,8.63
2018-07-13T11:16:48.911Z,6.93
2018-07-13T11:19:17.457Z,7.37
2018-07-13T11:21:45.905Z,5.77
2018-07-13T11:24:14.337Z,6.40
2018-07-13T11:26:42.835Z,9.43
2018-07-13T11:29:11.278Z,6.13
2018-07-13T11:31:39.741Z,6.90
2018-07-13T11:34:08.197Z,6.90
2018-07-13T11:36:36.706Z,8.40
2018-07-13T11:39:06.855Z,5.70
2018-07-13T11:41:35.309Z,6.53
2018-07-13T11:44:03.797Z,7.03
2018-07-13T11:46:32.246Z,6.93
2018-07-13T11:49:00.670Z,8.43
2018-07-13T11:51:29.185Z,7.90
2018-07-13T11:53:57.737Z,7.90
2018-07-13T11:56:26.280Z,5.00
2018-07-13T11:58:54.773Z,6.70
2018-07-13T12:01:23.257Z,4.80
2018-07-13T12:03:51.757Z,7.17
2018-07-13T12:06:20.241Z,7.73
2018-07-13T12:08:48.767Z,6.73
2018-07-13T12:11:17.281Z,5.30
2018-07-13T12:13:45.865Z,5.00
2018-07-13T12:16:14.329Z,5.77
2018-07-13T12:18:42.788Z,8.10
2018-07-13T12:21:11.203Z,5.67
2018-07-13T12:23:39.648Z,12.07
2018-07-13T12:26:08.053Z,7.83
2018-07-13T12:28:36.541Z,8.03
2018-07-13T12:31:05.059Z,6.93
2018-07-13T12:33:33.565Z,8.40
2018-07-13T12:36:02.067Z,7.63
2018-07-13T12:38:30.511Z,7.90
2018-07-13T12:40:58.936Z,6.50
2018-07-13T12:43:27.399Z,5.70
2018-07-13T12:45:55.966Z,5.93
2018-07-13T12:48:24.429Z,6.37
2018-07-13T12:50:52.930Z,7.33
2018-07-13T12:53:21.673Z,9.53
2018-07-13T12:55:50.097Z,5.90
2018-07-13T12:58:18.574Z,7.30
2018-07-13T13:00:47.067Z,6.07
2018-07-13T13:03:15.569Z,5.40
2018-07-13T13:05:44.158Z,6.27
2018-07-13T13:08:12.638Z,5.97
2018-07-13T13:10:41.120Z,5.27
2018-07-13T13:13:09.555Z,4.83
2018-07-13T13:15:37.969Z,7.60
2018-07-13T13:18:06.462Z,4.85
2018-07-13T13:20:34.886Z,6.10
2018-07-13T13:23:05.423Z,7.47
2018-07-13T13:25:33.892Z,6.28
2018-07-13T13:28:02.410Z,5.75
2018-07-13T13:30:30.979Z,7.90
2018-07-13T13:32:59.568Z,6.25
2018-07-13T13:35:28.150Z,5.20
2018-07-13T13:37:56.562Z,8.20
2018-07-13T13:40:25.024Z,5.50
2018-07-13T13:43:00.050Z,7.12
2018-07-13T13:45:28.462Z,5.12
2018-07-13T13:47:56.914Z,4.87
2018-07-13T13:50:25.356Z,5.22
2018-07-13T13:52:53.910Z,7.83
2018-07-13T13:55:22.511Z,4.22
2018-07-13T13:57:51.010Z,4.58
2018-07-13T14:00:19.538Z,4.83
2018-07-13T14:02:47.968Z,5.12
2018-07-13T14:05:16.518Z,4.58
2018-07-13T14:07:44.887Z,6.12
2018-07-13T14:10:13.342Z,6.42
2018-07-13T14:12:41.815Z,5.28
2018-07-13T14:15:10.270Z,6.05
2018-07-13T14:17:38.750Z,4.28
2018-07-13T14:20:07.201Z,8.30
2018-07-13T14:22:35.673Z,4.85
2018-07-13T14:25:04.198Z,4.72
2018-07-13T14:27:32.609Z,5.35
2018-07-13T14:30:01.038Z,5.10
2018-07-13T14:32:29.529Z,3.62
2018-07-13T14:34:58.077Z,4.33
2018-07-13T14:37:26.482Z,3.25
2018-07-13T14:39:54.909Z,5.37
2018-07-13T14:42:23.341Z,4.72
2018-07-13T14:44:51.776Z,5.50
2018-07-13T14:47:23.478Z,5.35
2018-07-13T14:49:51.882Z,5.65
2018-07-13T14:52:20.266Z,4.08
2018-07-13T14:54:48.846Z,5.90
2018-07-13T14:57:17.334Z,4.50
2018-07-13T14:59:45.842Z,5.03
2018-07-13T15:02:14.302Z,4.03
2018-07-13T15:04:42.872Z,6.92
2018-07-13T15:07:11.441Z,4.67
2018-07-13T15:09:40.090Z,5.60
2018-07-13T15:12:08.614Z,4.33
2018-07-13T15:14:37.121Z,4.65
2018-07-13T15:17:05.605Z,3.67
2018-07-13T15:19:34.105Z,2.87
2018-07-13T15:22:02.566Z,5.97
2018-07-13T15:24:31.017Z,3.65
2018-07-13T15:26:59.540Z,5.78
2018-07-13T15:29:28.038Z,3.10
2018-07-13T15:31:56.626Z,3.67
2018-07-13T15:34:25.657Z,5.65
2018-07-13T15:36:54.193Z,3.67
2018-07-13T15:39:22.653Z,4.55
2018-07-13T15:41:51.227Z,4.33
2018-07-13T15:44:19.675Z,4.08
2018-07-13T15:46:48.248Z,3.35
2018-07-13T15:49:16.698Z,5.12
2018-07-13T15:51:45.209Z,6.03
2018-07-13T15:54:13.650Z,5.35
2018-07-13T15:56:42.152Z,3.95
2018-07-13T15:59:10.626Z,3.40
2018-07-13T16:01:39.133Z,4.15
2018-07-13T16:04:07.613Z,4.00
2018-07-13T16:06:36.111Z,4.37
2018-07-13T16:09:04.597Z,3.90
2018-07-13T16:11:33.055Z,6.30
2018-07-13T16:14:01.538Z,2.70
2018-07-13T16:16:30.015Z,3.05
2018-07-13T16:18:58.474Z,3.15
2018-07-13T16:21:30.393Z,3.72
2018-07-13T16:23:59.039Z,3.12
2018-07-13T16:26:28.127Z,3.87
2018-07-13T16:28:56.694Z,3.67
2018-07-13T16:31:25.237Z,3.00
2018-07-13T16:33:53.746Z,4.07
2018-07-13T16:36:22.219Z,4.12
2018-07-13T16:38:50.714Z,3.87
2018-07-13T16:44:15.577Z,4.55
2018-07-13T16:46:44.051Z,4.87
2018-07-13T16:49:12.580Z,6.12
2018-07-13T16:51:41.245Z,2.90
2018-07-13T16:54:09.691Z,3.90
2018-07-13T16:56:38.278Z,6.05
2018-07-13T16:59:06.649Z,4.35
2018-07-13T17:01:35.104Z,4.50
2018-07-13T17:04:03.537Z,5.03
2018-07-13T17:06:31.996Z,3.62
2018-07-13T17:09:00.483Z,4.58
2018-07-13T17:11:28.866Z,6.12
2018-07-13T17:13:57.353Z,5.25
2018-07-13T17:16:37.004Z,5.83
2018-07-13T17:19:05.653Z,4.62
2018-07-13T17:21:34.154Z,4.15
2018-07-13T17:24:02.605Z,4.12
2018-07-13T17:26:31.049Z,6.03
2018-07-13T17:29:00.249Z,3.80
2018-07-13T17:31:28.665Z,6.12
2018-07-13T17:33:57.179Z,4.12
2018-07-13T17:36:25.609Z,3.67
2018-07-13T17:38:54.177Z,3.92
2018-07-13T17:41:24.636Z,4.97
2018-07-13T17:43:53.085Z,4.60
2018-07-13T17:46:21.522Z,7.23
2018-07-13T17:48:50.119Z,5.03
2018-07-13T17:51:18.509Z,4.70
2018-07-13T17:53:46.990Z,4.90
2018-07-13T17:56:15.620Z,4.77
2018-07-13T17:58:44.060Z,5.70
2018-07-13T18:01:12.497Z,7.37
2018-07-13T18:03:40.963Z,5.57
2018-07-13T18:06:09.552Z,6.43
2018-07-13T18:08:38.015Z,6.17
2018-07-13T18:11:07.014Z,5.08
2018-07-13T18:13:35.496Z,5.58
2018-07-13T18:16:04.023Z,4.97
2018-07-13T18:18:32.471Z,7.15
2018-07-13T18:21:01.939Z,3.80
2018-07-13T18:23:30.389Z,3.58
2018-07-13T18:25:59.313Z,3.40
2018-07-13T18:28:27.758Z,4.22
2018-07-13T18:30:56.319Z,6.35
2018-07-13T18:33:24.907Z,5.37
2018-07-13T18:35:53.292Z,3.37
2018-07-13T18:38:21.788Z,6.30
2018-07-13T18:40:50.301Z,5.50
2018-07-13T18:43:18.740Z,4.87
2018-07-13T18:45:48.114Z,5.25
2018-07-13T18:48:16.685Z,6.20
2018-07-13T18:50:45.110Z,4.47
2018-07-13T18:53:13.597Z,5.73
2018-07-13T18:55:42.094Z,8.13
2018-07-13T18:58:10.515Z,4.30
2018-07-13T19:00:38.970Z,9.90
2018-07-13T19:03:07.581Z,9.00
2018-07-13T19:05:36.031Z,5.40
2018-07-13T19:08:04.576Z,4.73
2018-07-13T19:10:33.007Z,7.40
2018-07-13T19:13:01.510Z,4.60
2018-07-13T19:15:52.863Z,6.87
2018-07-13T19:18:21.360Z,8.67
2018-07-13T19:20:50.061Z,4.53
2018-07-13T19:23:18.441Z,6.23
2018-07-13T19:25:46.881Z,6.53
2018-07-13T19:28:15.328Z,5.17
2018-07-13T19:30:50.496Z,11.57
2018-07-13T19:33:18.846Z,4.40
2018-07-13T19:35:47.849Z,7.33
2018-07-13T19:38:16.348Z,8.40
2018-07-13T19:41:03.835Z,16.20
2018-07-13T19:43:32.295Z,6.17
2018-07-13T19:46:00.750Z,6.60
2018-07-13T19:48:29.148Z,6.73
2018-07-13T19:50:57.621Z,7.47
2018-07-13T19:53:26.087Z,9.50
2018-07-13T19:55:55.204Z,7.33
2018-07-13T19:58:23.723Z,5.20
2018-07-13T20:01:07.682Z,5.43
2018-07-13T20:03:36.127Z,9.80
2018-07-13T20:06:04.820Z,4.70
2018-07-13T20:08:35.055Z,6.07
2018-07-13T20:11:10.132Z,5.23
2018-07-13T20:13:38.655Z,6.90
2018-07-13T20:16:07.151Z,6.10
2018-07-13T20:18:35.639Z,5.10
2018-07-13T20:21:04.201Z,11.67
2018-07-13T20:23:32.834Z,4.80
2018-07-13T20:26:02.024Z,5.53
2018-07-13T20:28:30.521Z,10.03
2018-07-13T20:30:59.202Z,9.80
2018-07-13T20:33:27.734Z,10.40
2018-07-13T20:35:56.991Z,16.70
2018-07-13T20:38:25.423Z,18.97
2018-07-13T20:41:16.354Z,12.30
2018-07-13T20:43:44.749Z,19.00
2018-07-13T20:46:13.213Z,13.30
2018-07-13T20:48:41.745Z,18.43
2018-07-13T20:51:10.183Z,11.90
2018-07-13T20:53:38.607Z,13.27
2018-07-13T20:56:07.062Z,13.70
2018-07-13T20:58:35.505Z,10.37
2018-07-13T21:01:04.037Z,9.43
2018-07-13T21:03:32.474Z,10.33
2018-07-13T21:06:00.877Z,6.23
2018-07-13T21:08:29.307Z,6.03
2018-07-13T21:10:57.886Z,6.33
2018-07-13T21:13:26.270Z,5.77
2018-07-13T21:15:54.685Z,7.37
2018-07-13T21:18:23.126Z,10.10
2018-07-13T21:20:51.707Z,8.17
2018-07-13T21:23:20.229Z,20.37
2018-07-13T21:26:00.181Z,8.27
2018-07-13T21:28:29.301Z,8.40
2018-07-13T21:30:57.869Z,7.10
2018-07-13T21:33:48.744Z,7.80
2018-07-13T21:36:17.193Z,6.80
2018-07-13T21:38:45.652Z,8.03
2018-07-13T21:41:14.108Z,8.13
2018-07-13T21:43:42.517Z,8.63
2018-07-13T21:46:11.062Z,6.67
2018-07-13T21:48:46.157Z,6.17
2018-07-13T21:51:14.573Z,5.40
2018-07-13T21:53:43.010Z,9.33
2018-07-13T21:56:11.489Z,14.17
2018-07-13T21:58:39.917Z,6.67
2018-07-13T22:01:08.410Z,7.13
2018-07-13T22:03:36.854Z,6.67
2018-07-13T22:06:05.341Z,10.60
2018-07-13T22:08:33.782Z,10.63
2018-07-13T22:11:02.219Z,11.10
2018-07-13T22:13:30.707Z,8.00
2018-07-13T22:15:59.141Z,8.33
2018-07-13T22:18:40.819Z,8.23
2018-07-13T22:21:09.293Z,9.77
2018-07-13T22:23:37.783Z,11.50
2018-07-13T22:26:06.302Z,6.60
2018-07-13T22:28:34.828Z,7.77
2018-07-13T22:31:03.371Z,6.57
2018-07-13T22:33:51.993Z,10.00
2018-07-13T22:36:20.420Z,6.93
2018-07-13T22:38:48.852Z,8.63
2018-07-13T22:41:17.295Z,7.70
2018-07-13T22:43:45.785Z,8.93
2018-07-13T22:46:14.282Z,9.27
2018-07-13T22:48:42.773Z,10.60
2018-07-13T22:51:15.921Z,8.33
2018-07-13T22:53:44.361Z,13.43
2018-07-13T22:56:12.752Z,8.27
2018-07-13T22:58:41.176Z,6.07
2018-07-13T23:01:09.583Z,9.40
2018-07-13T23:03:38.017Z,6.33
2018-07-13T23:06:06.613Z,8.00
2018-07-13T23:08:35.041Z,8.37
2018-07-13T23:11:04.350Z,12.77
2018-07-13T23:13:32.752Z,10.37
2018-07-13T23:16:01.170Z,7.03
2018-07-13T23:18:29.615Z,9.07
2018-07-13T23:20:58.050Z,8.13
2018-07-13T23:23:27.045Z,9.27
2018-07-13T23:25:55.501Z,6.60
2018-07-13T23:28:23.927Z,6.17
2018-07-13T23:30:52.540Z,9.23
2018-07-13T23:33:20.986Z,10.67
2018-07-13T23:35:49.429Z,11.37
2018-07-13T23:38:17.917Z,11.37
2018-07-13T23:40:46.345Z,14.83
2018-07-13T23:43:14.782Z,12.13
2018-07-13T23:45:43.214Z,9.60
2018-07-13T23:48:11.743Z,11.17
2018-07-13T23:50:40.156Z,9.67
2018-07-13T23:53:08.601Z,8.87
2018-07-13T23:55:37.084Z,14.07
2018-07-13T23:58:05.606Z,11.20
